Airfield :
LOGIN :

Register | Disclaimer

   EN    FR    IT 

 










Legend :    VFR   Marginal VFR   IFR   Intensive IFR   Very Intensive IFR
Visi :
Ceiling :
>= 8 km
>= 3000ft
5 to 8 km
1000 to 3000 ft
1500m to 5 km
500 to 1000 ft
800 to 1500m
200 to 500 ft
< 800m
< 200 ft
Symbols :   Thunderstorms  Fog  Heavy snow  Heavy precipitations  Wind > 20 kt
SIGMETs :     Misc.  Thunderstorms  Icing  Turbulence  Mountain Waves  Volcanic Ashes






- Airport Elevation : 779 ft
- IATA code : CMF


LFLB - Chambery / Aix-Les-Bains

CURRENT METAR :
  • 141230Z AUTO 19009KT 170V240 9999 OVC082 17/13 Q1016 TEMPO FEW050TCU BKN050

EXPIRED METARs :
  • 141200Z AUTO 19010KT 9999 FEW020/// BKN072/// OVC082/// //////TCU 16/13 Q1016 NOSIG
  • 141130Z AUTO 19011KT 170V230 9999 -RA FEW032/// BKN066/// OVC076/// ///TCU 16/13 Q1016 NOSIG
  • 141100Z AUTO 19010KT 160V230 9999 -RA FEW029 SCT060 BKN072 16/13 Q1016 TEMPO FEW050TCU BKN050
  • 141030Z AUTO 20009KT 170V240 9999 -RA OVC072 15/12 Q1016 TEMPO FEW050TCU BKN050
  • 141000Z AUTO 20011KT 180V250 9999 FEW042 OVC072 16/12 Q1016 TEMPO FEW050TCU BKN050
  • 140930Z AUTO 20011KT 170V250 9999 -RA BKN072 OVC082 15/12 Q1016 TEMPO FEW050TCU BKN050
  • 140900Z AUTO 21010KT 180V260 9999 FEW029 BKN070 OVC080 15/12 Q1017 TEMPO FEW050TCU BKN050
  • 140830Z AUTO 20010KT 170V240 9999 -RA OVC068 15/12 Q1017 TEMPO 3000 RA BKN006
  • 140800Z AUTO 20010KT 170V250 9999 FEW018 OVC068 14/12 Q1017 TEMPO 3000 RA BKN006

TAF TAF LFLB
Valid from the 14 at 09:00 until the 15 at 09:00 UTC


140800Z 1409/1509 20012KT 9999 BKN065
PROB40
TEMPO 1410/1415 -RA FEW050TCU BKN050
BECMG 1418/1420 VRB02KT
BECMG 1421/1423 RA BKN060
TEMPO 1423/1509 4000 RA BKN030
PROB30
TEMPO 1500/1507 19015G30KT 1500 TSRA BKN006 BKN060CB



MET'MAP, your aeronautical weather chart ! - Copyright ORBIFLY December 2007 - Disclaimer

ORBIFLY MET'MAP TEAM :

Programming & Development : Alexandra Zaïnal
Original concept : Baudouin d'Aumeries
Technical & hardware support : Manuel Goepfert
Assistance : Marc-Olivier Méhu




SOURCES & CREDITS :

   NOAA